Main page
METAR-TAF:

METAR-TAF

Airports :

Podgorica, Montenegro

Podgorica Airport

latitude: 42-26N, longitude: 019-17E, elevation: 53 m

Current weather observation

The report was made 38 minutes ago, at 23:30 UTC
Wind 2 kt from variable directions
Temperature 8°C
Humidity 87%
Pressure 1020 hPa
Visibility 10 km or more
Scattered clouds at a height of 9000 ft

METAR: LYPG 262330Z VRB02KT 9999 SCT090 08/06 Q1020 NOSIG

Time: 01:08 (00:08 UTC)

Forecast

The report was made 1 hour and 8 minutes ago, at 23:00 UTC
Forecast valid from 27 at 00 UTC to 27 at 24 UTC
Wind 5 kt from the North
Visibility 10 km or more
Few clouds at a height of 4000 ft
Broken clouds at a height of 9000 ft

TAF: LYPG 262300Z 2700/2724 36005KT 9999 FEW040 BKN090 TX18/2713Z TN07/2705Z

Weather observations and forecasts of more than 4000 airports (METAR and TAF reports).

The available stations are represented by yellow and red dots on the map.

Hover mouse over dot to see the name of the station.

Then click to see weather observations and forecasts.

To change the map : click on the green buttons with a black cross to zoom in, on the green button with a dash to zoom out, or on the green arrows for adjacent maps.


METAR-TAF: